Weather at Blairmore (Forestry) Heliport

Public forecast

Using degrees Celsius for public forecast. Weather courtesy of forecast.io.

Closest aviation weather report (METAR) to Blairmore (Forestry) Heliport

Closest report is Pincher Creek Airport, 18.5 nm (34.2 km) ESE.

2024/05/22 17:07 (retrieved 18 minutes ago)

CZPC 221707Z AUTO 04012KT 9SM -RA BKN007 BKN016 BKN029 OVC033 07/05 A2976 RMK SLP095

Closest aviation forecast (TAF) to Blairmore (Forestry) Heliport

Closest forecast is Cranbrook/Canadian Rockies International Airport, 51.8 nm (95.9 km) W.

2024/05/22 14:15 Ammendment (retrieved 3 hours ago)

TAF AMD TAF AMD CYXC 221414Z 2214/2301 09005KT P6SM FEW008 SCT030 BKN050 TEMPO 2214/2217 P6SM -SHRA BKN008 OVC030 BECMG 2215/2217 36008KT FM221700 36008KT P6SM BKN050 TEMPO 2217/2223 P6SM -SHRA SCT020 BKN040 FM222300 36006KT P6SM BKN050 TEMPO 2223/2301 P6SM -SHRA VCTS OVC040CB RMK NXT FCST BY 221900Z